Terminal Aerodrome Forecast
Issued by NWS

Home | Current Version | Previous Version | Text Only | Print | Product List | Glossary Off
Versions: 1 2 3 4 5 6 7 8 9 10 11 12 13 14 15 16 17 18 19 20 21 22 23 24 25 26 27 28 29 30 31 32 33 34 35 36

000
FTUS43 KLOT 010800 AAA
TAFDPA
TAF AMD
KDPA 010855Z 0109/0206 12006KT P6SM BKN018
     FM011000 12005KT P6SM SCT020
     FM011500 13010KT P6SM FEW025 SCT250
     FM020100 15008KT P6SM SCT150 BKN250
     FM020500 16007KT P6SM VCSH SCT050 BKN120=

USA.gov is the U.S. government's official web portal to all federal, state and local government web resources and services.